Time;durP1;ratioP1;P1;durP2;ratioP2;P2;SDS_P1;SDS_P2;PMS_P1;PMS_P2;Temp;Humidity;BMP_temperature;BMP_pressure;BME280_temperature;BME280_humidity;BME280_pressure;Samples;Min_cycle;Max_cycle;Signal;HPM_P1;HPM_P2
2022/08/13 00:00:09;;;;;;;;;;;;;;;;;;2115788;28;20026;-46
2022/08/13 00:01:10;;;;;;;;;;;;;;;;;;2115592;28;19927;-46
2022/08/13 00:02:16;;;;;;;;;;;;;;;;;;2115669;28;20434;-46
2022/08/13 00:03:19;;;;;;;;;;;;;;;;;;2115712;28;19988;-46
2022/08/13 00:04:42;;;;;;;;;;;;;;;;;;2115529;28;20030;-46
2022/08/13 00:05:43;;;;;;;;;;;;;;;;;;2115559;28;19974;-46
2022/08/13 00:07:05;;;;;;;;;;;;;;;;;;2115475;28;20076;-46
2022/08/13 00:08:06;;;;;;;;;;;;;;;;;;2115634;28;19963;-47
2022/08/13 00:09:08;;;;;;;;;;;;;;;;;;2115566;28;20327;-46
2022/08/13 00:10:27;;;;;;;;;;;;;;;;;;2114685;28;19928;-47
2022/08/13 00:13:03;;;;;;;;;;;;;;;;;;2107288;28;20300;-47
2022/08/13 00:14:04;;;;;;;;;;;;;;;;;;2107289;28;19938;-47
2022/08/13 00:15:07;;;;;;;;;;;;;;;;;;2107342;28;20317;-46
2022/08/13 00:16:13;;;;;;;;;;;;;;;;;;2107218;28;20014;-46
2022/08/13 00:17:14;;;;;;;;;;;;;;;;;;2107231;28;20190;-46
2022/08/13 00:18:16;;;;;;;;;;;;;;;;;;2107217;28;19970;-47
2022/08/13 00:19:20;;;;;;;;;;;;;;;;;;2107046;28;19931;-46
2022/08/13 00:20:21;;;;;;;;;;;;;;;;;;2107161;28;20352;-48
2022/08/13 00:21:23;;;;;;;;;;;;;;;;;;2107218;28;19908;-45
2022/08/13 00:22:25;;;;;;;;;;;;;;;;;;2107037;28;20331;-46
2022/08/13 00:23:31;;;;;;;;;;;;;;;;;;2107023;28;20011;-45
2022/08/13 00:24:51;;;;;;;;;;;;;;;;;;2106987;28;19925;-45
2022/08/13 00:25:54;;;;;;;;;;;;;;;;;;2107133;28;19924;-46
2022/08/13 00:26:56;;;;;;;;;;;;;;;;;;2107025;28;19958;-45
2022/08/13 00:27:58;;;;;;;;;;;;;;;;;;2107021;28;20011;-45
2022/08/13 00:29:02;;;;;;;;;;;;;;;;;;2107046;28;20400;-45
2022/08/13 00:30:05;;;;;;;;;;;;;;;;;;2107325;28;19955;-46
2022/08/13 00:31:05;;;;;;;;;;;;;;;;;;2107013;28;20348;-47
2022/08/13 00:32:06;;;;;;;;;;;;;;;;;;2107036;28;19985;-47
2022/08/13 00:33:12;;;;;;;;;;;;;;;;;;2107228;28;19963;-45
2022/08/13 00:34:13;;;;;;;;;;;;;;;;;;2107144;28;19966;-46
2022/08/13 00:35:14;;;;;;;;;;;;;;;;;;2106970;28;19931;-46
2022/08/13 00:36:18;;;;;;;;;;;;;;;;;;2107089;28;19946;-45
2022/08/13 00:37:29;;;;;;;;;;;;;;;;;;2106933;28;19968;-45
2022/08/13 00:38:35;;;;;;;;;;;;;;;;;;2107040;28;19956;-45
2022/08/13 00:39:37;;;;;;;;;;;;;;;;;;2107175;28;19924;-45
2022/08/13 00:40:58;;;;;;;;;;;;;;;;;;2107145;28;19935;-45
2022/08/13 00:41:59;;;;;;;;;;;;;;;;;;2106944;28;20019;-45
2022/08/13 00:43:02;;;;;;;;;;;;;;;;;;2107086;28;20361;-47
2022/08/13 00:44:04;;;;;;;;;;;;;;;;;;2106957;28;19931;-47
2022/08/13 00:45:05;;;;;;;;;;;;;;;;;;2107058;28;20376;-46
2022/08/13 00:46:09;;;;;;;;;;;;;;;;;;2106806;28;19924;-47
2022/08/13 00:48:46;;;;;;;;;;;;;;;;;;2106993;28;20061;-47
2022/08/13 00:49:53;;;;;;;;;;;;;;;;;;2107028;28;19924;-47
2022/08/13 00:51:02;;;;;;;;;;;;;;;;;;2106938;28;20565;-46
2022/08/13 00:52:06;;;;;;;;;;;;;;;;;;2106935;28;19971;-47
2022/08/13 00:53:16;;;;;;;;;;;;;;;;;;2106874;28;19964;-48
2022/08/13 00:54:17;;;;;;;;;;;;;;;;;;2107131;28;19968;-46
2022/08/13 00:55:18;;;;;;;;;;;;;;;;;;2106809;28;20007;-46
2022/08/13 00:56:24;;;;;;;;;;;;;;;;;;2106847;28;20378;-47
2022/08/13 00:57:25;;;;;;;;;;;;;;;;;;2106874;28;20366;-46
2022/08/13 00:58:27;;;;;;;;;;;;;;;;;;2107220;28;19928;-47
2022/08/13 00:59:28;;;;;;;;;;;;;;;;;;2107027;28;19963;-44
2022/08/13 01:00:46;;;;;;;;;;;;;;;;;;2106898;28;19936;-45
2022/08/13 01:01:47;;;;;;;;;;;;;;;;;;2106801;28;20018;-45
2022/08/13 01:02:50;;;;;;;;;;;;;;;;;;2106944;28;19924;-45
2022/08/13 01:03:56;;;;;;;;;;;;;;;;;;2106932;28;19970;-45
2022/08/13 01:05:11;;;;;;;;;;;;;;;;;;2111701;28;19924;-45
2022/08/13 01:06:12;;;;;;;;;;;;;;;;;;2115055;28;20365;-45
2022/08/13 01:07:13;;;;;;;;;;;;;;;;;;2115367;28;20008;-44
2022/08/13 01:08:34;;;;;;;;;;;;;;;;;;2115256;28;19930;-45
2022/08/13 01:09:35;;;;;;;;;;;;;;;;;;2115384;28;20061;-45
2022/08/13 01:10:56;;;;;;;;;;;;;;;;;;2115184;28;19924;-44
2022/08/13 01:11:58;;;;;;;;;;;;;;;;;;2106743;28;20027;-45
2022/08/13 01:13:00;;;;;;;;;;;;;;;;;;2106882;28;19927;-46
2022/08/13 01:14:02;;;;;;;;;;;;;;;;;;2106695;28;20023;-45
2022/08/13 01:15:03;;;;;;;;;;;;;;;;;;2106712;28;20325;-45
2022/08/13 01:16:04;;;;;;;;;;;;;;;;;;2106953;28;19931;-45
2022/08/13 01:17:05;;;;;;;;;;;;;;;;;;2106803;28;19924;-45
2022/08/13 01:18:07;;;;;;;;;;;;;;;;;;2106848;28;19932;-46
2022/08/13 01:19:09;;;;;;;;;;;;;;;;;;2107153;28;19931;-47
2022/08/13 01:20:18;;;;;;;;;;;;;;;;;;2106611;28;19960;-46
2022/08/13 01:21:33;;;;;;;;;;;;;;;;;;2106408;28;20289;-47
2022/08/13 01:22:42;;;;;;;;;;;;;;;;;;2106717;28;20016;-46
2022/08/13 01:23:45;;;;;;;;;;;;;;;;;;2106681;28;20284;-47
2022/08/13 01:25:05;;;;;;;;;;;;;;;;;;2106799;28;20280;-46
2022/08/13 01:26:07;;;;;;;;;;;;;;;;;;2106888;28;19978;-46
2022/08/13 01:27:10;;;;;;;;;;;;;;;;;;2106662;28;19977;-46
2022/08/13 01:28:12;;;;;;;;;;;;;;;;;;2106790;28;20006;-48
2022/08/13 01:29:15;;;;;;;;;;;;;;;;;;2106659;28;19956;-46
2022/08/13 01:30:16;;;;;;;;;;;;;;;;;;2106755;28;19975;-47
2022/08/13 01:31:18;;;;;;;;;;;;;;;;;;2106603;28;20002;-46
2022/08/13 01:32:20;;;;;;;;;;;;;;;;;;2106766;28;19924;-46
2022/08/13 01:33:21;;;;;;;;;;;;;;;;;;2106662;28;19977;-46
2022/08/13 01:34:22;;;;;;;;;;;;;;;;;;2106953;28;19924;-46
2022/08/13 01:35:26;;;;;;;;;;;;;;;;;;2106727;28;19924;-46
2022/08/13 01:36:27;;;;;;;;;;;;;;;;;;2106627;28;20384;-46
2022/08/13 01:37:51;;;;;;;;;;;;;;;;;;2106646;28;20110;-46
2022/08/13 01:38:52;;;;;;;;;;;;;;;;;;2106743;28;20310;-47
2022/08/13 01:39:52;;;;;;;;;;;;;;;;;;2106618;28;20131;-47
2022/08/13 01:40:54;;;;;;;;;;;;;;;;;;2106563;28;20385;-46
2022/08/13 01:41:55;;;;;;;;;;;;;;;;;;2106535;28;19959;-46
2022/08/13 01:42:58;;;;;;;;;;;;;;;;;;2106628;28;20015;-47
2022/08/13 01:44:04;;;;;;;;;;;;;;;;;;2106766;28;19948;-46
2022/08/13 01:45:05;;;;;;;;;;;;;;;;;;2106515;28;19967;-45
2022/08/13 01:46:06;;;;;;;;;;;;;;;;;;2106652;28;19930;-46
2022/08/13 01:51:21;;;;;;;;;;;;;;;;;;2106454;28;19928;-47
2022/08/13 01:52:23;;;;;;;;;;;;;;;;;;2106687;28;19931;-45
2022/08/13 01:53:24;;;;;;;;;;;;;;;;;;2106353;28;19924;-45
2022/08/13 01:54:25;;;;;;;;;;;;;;;;;;2106459;28;20011;-46
2022/08/13 01:55:39;;;;;;;;;;;;;;;;;;2106554;28;19963;-45
2022/08/13 01:57:00;;;;;;;;;;;;;;;;;;2106326;28;19969;-44
2022/08/13 01:58:02;;;;;;;;;;;;;;;;;;2106582;28;20006;-45
2022/08/13 01:59:02;;;;;;;;;;;;;;;;;;2106730;28;20011;-45
2022/08/13 02:00:10;;;;;;;;;;;;;;;;;;2106637;28;19935;-45
2022/08/13 02:01:12;;;;;;;;;;;;;;;;;;2109310;28;20104;-45
2022/08/13 02:02:13;;;;;;;;;;;;;;;;;;2115263;28;19965;-45
2022/08/13 02:03:31;;;;;;;;;;;;;;;;;;2106546;28;19936;-44
2022/08/13 02:04:32;;;;;;;;;;;;;;;;;;2106349;28;19924;-45
2022/08/13 02:05:34;;;;;;;;;;;;;;;;;;2106566;28;19932;-44
2022/08/13 02:06:59;;;;;;;;;;;;;;;;;;2106469;28;19928;-45
2022/08/13 02:08:00;;;;;;;;;;;;;;;;;;2106347;28;20023;-44
2022/08/13 02:09:06;;;;;;;;;;;;;;;;;;2106475;28;19928;-45
2022/08/13 02:10:24;;;;;;;;;;;;;;;;;;2106685;28;19970;-46
2022/08/13 02:11:26;;;;;;;;;;;;;;;;;;2109989;28;19930;-45
2022/08/13 02:12:26;;;;;;;;;;;;;;;;;;2114826;28;20257;-45
2022/08/13 02:13:36;;;;;;;;;;;;;;;;;;2114737;28;19958;-46
2022/08/13 02:14:42;;;;;;;;;;;;;;;;;;2114848;28;19923;-45
2022/08/13 02:15:43;;;;;;;;;;;;;;;;;;2114989;28;19923;-44
2022/08/13 02:16:44;;;;;;;;;;;;;;;;;;2114969;28;20514;-44
2022/08/13 02:17:45;;;;;;;;;;;;;;;;;;2114710;28;19924;-45
2022/08/13 02:19:03;;;;;;;;;;;;;;;;;;2114968;28;19924;-45
2022/08/13 02:20:20;;;;;;;;;;;;;;;;;;2115115;28;19924;-48
2022/08/13 02:21:22;;;;;;;;;;;;;;;;;;2114806;28;19959;-46
2022/08/13 02:22:23;;;;;;;;;;;;;;;;;;2115030;28;20452;-45
2022/08/13 02:23:25;;;;;;;;;;;;;;;;;;2114704;28;19955;-45
2022/08/13 02:24:30;;;;;;;;;;;;;;;;;;2114679;28;20464;-45
2022/08/13 02:25:32;;;;;;;;;;;;;;;;;;2114671;28;19984;-45
2022/08/13 02:26:34;;;;;;;;;;;;;;;;;;2114548;28;20444;-45
2022/08/13 02:27:35;;;;;;;;;;;;;;;;;;2114710;28;20326;-46
2022/08/13 02:28:39;;;;;;;;;;;;;;;;;;2114759;28;19923;-45
2022/08/13 02:29:39;;;;;;;;;;;;;;;;;;2114645;28;19924;-45
2022/08/13 02:30:40;;;;;;;;;;;;;;;;;;2114847;28;20007;-46
2022/08/13 02:31:43;;;;;;;;;;;;;;;;;;2114591;28;20368;-44
2022/08/13 02:33:04;;;;;;;;;;;;;;;;;;2114027;28;19923;-47
2022/08/13 02:34:05;;;;;;;;;;;;;;;;;;2114680;28;20018;-45
2022/08/13 02:35:09;;;;;;;;;;;;;;;;;;2114748;28;19924;-47
2022/08/13 02:36:10;;;;;;;;;;;;;;;;;;2114649;28;20010;-46
2022/08/13 02:37:11;;;;;;;;;;;;;;;;;;2114857;28;20368;-48
2022/08/13 02:38:21;;;;;;;;;;;;;;;;;;2115185;28;19928;-46
2022/08/13 02:39:27;;;;;;;;;;;;;;;;;;2115285;28;19931;-45
2022/08/13 02:41:48;;;;;;;;;;;;;;;;;;2114732;28;19923;-44
2022/08/13 02:42:53;;;;;;;;;;;;;;;;;;2114728;28;19969;-45
2022/08/13 02:43:55;;;;;;;;;;;;;;;;;;2114629;28;20014;-45
2022/08/13 02:44:59;;;;;;;;;;;;;;;;;;2114526;28;19924;-45
2022/08/13 02:46:00;;;;;;;;;;;;;;;;;;2114826;28;19966;-46
2022/08/13 02:47:01;;;;;;;;;;;;;;;;;;2114688;28;20361;-46
2022/08/13 02:48:02;;;;;;;;;;;;;;;;;;2114503;28;20444;-46
2022/08/13 02:49:03;;;;;;;;;;;;;;;;;;2114785;28;19928;-47
2022/08/13 02:50:04;;;;;;;;;;;;;;;;;;2114841;28;19928;-46
2022/08/13 02:51:05;;;;;;;;;;;;;;;;;;2114534;28;19928;-46
2022/08/13 02:52:08;;;;;;;;;;;;;;;;;;2114653;28;19971;-46
2022/08/13 02:53:11;;;;;;;;;;;;;;;;;;2114714;28;20023;-46
2022/08/13 02:54:28;;;;;;;;;;;;;;;;;;2114607;28;19924;-46
2022/08/13 02:55:30;;;;;;;;;;;;;;;;;;2114571;28;19923;-46
2022/08/13 02:56:36;;;;;;;;;;;;;;;;;;2114650;28;19924;-45
2022/08/13 02:57:37;;;;;;;;;;;;;;;;;;2114328;28;19935;-45
2022/08/13 02:58:39;;;;;;;;;;;;;;;;;;2114962;28;20005;-45
2022/08/13 02:59:41;;;;;;;;;;;;;;;;;;2114762;28;20372;-46
2022/08/13 03:01:02;;;;;;;;;;;;;;;;;;2114437;28;20268;-45
2022/08/13 03:02:04;;;;;;;;;;;;;;;;;;2114889;28;19928;-46
2022/08/13 03:03:05;;;;;;;;;;;;;;;;;;2114413;28;19939;-45
2022/08/13 03:04:14;;;;;;;;;;;;;;;;;;2114757;28;19924;-45
2022/08/13 03:05:15;;;;;;;;;;;;;;;;;;2114837;28;20060;-50
2022/08/13 03:06:19;;;;;;;;;;;;;;;;;;2114577;28;19928;-45
2022/08/13 03:07:21;;;;;;;;;;;;;;;;;;2114778;28;20400;-45
2022/08/13 03:08:22;;;;;;;;;;;;;;;;;;2114474;28;19997;-47
2022/08/13 03:09:39;;;;;;;;;;;;;;;;;;2114957;28;19923;-45
2022/08/13 03:10:46;;;;;;;;;;;;;;;;;;2114999;28;20034;-45
2022/08/13 03:11:47;;;;;;;;;;;;;;;;;;2107741;28;19973;-47
2022/08/13 03:12:48;;;;;;;;;;;;;;;;;;2106221;28;20220;-46
2022/08/13 03:13:49;;;;;;;;;;;;;;;;;;2106615;28;20007;-46
2022/08/13 03:14:52;;;;;;;;;;;;;;;;;;2106063;28;19994;-46
2022/08/13 03:15:53;;;;;;;;;;;;;;;;;;2106633;28;19924;-46
2022/08/13 03:16:56;;;;;;;;;;;;;;;;;;2106034;28;19932;-45
2022/08/13 03:17:56;;;;;;;;;;;;;;;;;;2106034;28;20558;-45
2022/08/13 03:18:58;;;;;;;;;;;;;;;;;;2105957;28;19927;-45
2022/08/13 03:20:02;;;;;;;;;;;;;;;;;;2106143;28;19932;-45
2022/08/13 03:21:03;;;;;;;;;;;;;;;;;;2106128;28;19924;-45
2022/08/13 03:22:05;;;;;;;;;;;;;;;;;;2106244;28;20015;-45
2022/08/13 03:23:07;;;;;;;;;;;;;;;;;;2106209;28;19930;-46
2022/08/13 03:24:08;;;;;;;;;;;;;;;;;;2106016;28;20026;-46
2022/08/13 03:25:09;;;;;;;;;;;;;;;;;;2106323;28;19924;-46
2022/08/13 03:26:11;;;;;;;;;;;;;;;;;;2106193;28;20026;-45
2022/08/13 03:27:12;;;;;;;;;;;;;;;;;;2105990;28;20331;-47
2022/08/13 03:28:13;;;;;;;;;;;;;;;;;;2106002;28;19924;-47
2022/08/13 03:29:14;;;;;;;;;;;;;;;;;;2106010;28;20388;-47
2022/08/13 03:30:15;;;;;;;;;;;;;;;;;;2106026;28;20027;-46
2022/08/13 03:31:16;;;;;;;;;;;;;;;;;;2106055;28;19960;-48
2022/08/13 03:32:17;;;;;;;;;;;;;;;;;;2106048;28;20010;-46
2022/08/13 03:33:18;;;;;;;;;;;;;;;;;;2106043;28;19949;-46
2022/08/13 03:34:20;;;;;;;;;;;;;;;;;;2106072;28;19924;-46
2022/08/13 03:35:21;;;;;;;;;;;;;;;;;;2106146;28;19928;-47
2022/08/13 03:36:42;;;;;;;;;;;;;;;;;;2105819;28;19967;-45
2022/08/13 03:37:43;;;;;;;;;;;;;;;;;;2106535;28;20062;-44
2022/08/13 03:38:44;;;;;;;;;;;;;;;;;;2106299;28;20486;-45
2022/08/13 03:39:44;;;;;;;;;;;;;;;;;;2105956;28;19932;-47
2022/08/13 03:41:01;;;;;;;;;;;;;;;;;;2106095;28;20254;-47
2022/08/13 03:42:01;;;;;;;;;;;;;;;;;;2105936;28;20003;-44
2022/08/13 03:43:02;;;;;;;;;;;;;;;;;;2105953;28;19924;-45
2022/08/13 03:44:05;;;;;;;;;;;;;;;;;;2106027;28;20031;-45
2022/08/13 03:45:06;;;;;;;;;;;;;;;;;;2107488;28;20276;-44
2022/08/13 03:46:08;;;;;;;;;;;;;;;;;;2107297;28;19971;-45
2022/08/13 03:47:09;;;;;;;;;;;;;;;;;;2107519;28;19924;-46
2022/08/13 03:48:30;;;;;;;;;;;;;;;;;;2107469;28;19923;-46
2022/08/13 03:49:36;;;;;;;;;;;;;;;;;;2107265;28;20512;-46
2022/08/13 03:50:37;;;;;;;;;;;;;;;;;;2107403;28;20014;-46
2022/08/13 03:51:39;;;;;;;;;;;;;;;;;;2107455;28;19924;-47
2022/08/13 03:52:49;;;;;;;;;;;;;;;;;;2107485;28;19931;-47
2022/08/13 03:53:50;;;;;;;;;;;;;;;;;;2111442;28;20027;-48
2022/08/13 03:54:51;;;;;;;;;;;;;;;;;;2115725;28;19924;-47
2022/08/13 03:55:58;;;;;;;;;;;;;;;;;;2115862;28;20329;-47
2022/08/13 03:57:00;;;;;;;;;;;;;;;;;;2115882;28;20202;-47
2022/08/13 03:58:02;;;;;;;;;;;;;;;;;;2115658;28;19931;-47
2022/08/13 03:59:15;;;;;;;;;;;;;;;;;;2116002;28;19924;-46
2022/08/13 04:00:15;;;;;;;;;;;;;;;;;;2115764;28;19924;-48
2022/08/13 04:01:17;;;;;;;;;;;;;;;;;;2115732;28;20391;-47
2022/08/13 04:02:20;;;;;;;;;;;;;;;;;;2115666;28;19951;-46
2022/08/13 04:03:21;;;;;;;;;;;;;;;;;;2115797;28;20262;-47
2022/08/13 04:04:21;;;;;;;;;;;;;;;;;;2115668;28;19992;-45
2022/08/13 04:05:24;;;;;;;;;;;;;;;;;;2115989;28;19946;-47
2022/08/13 04:06:42;;;;;;;;;;;;;;;;;;2115647;28;20301;-46
2022/08/13 04:07:43;;;;;;;;;;;;;;;;;;2115807;28;20457;-46
2022/08/13 04:08:44;;;;;;;;;;;;;;;;;;2115705;28;19936;-46
2022/08/13 04:09:44;;;;;;;;;;;;;;;;;;2115669;28;20436;-46
2022/08/13 04:10:56;;;;;;;;;;;;;;;;;;2115646;28;19934;-47
2022/08/13 04:11:56;;;;;;;;;;;;;;;;;;2107296;28;19971;-46
2022/08/13 04:13:06;;;;;;;;;;;;;;;;;;2107777;28;19950;-45
2022/08/13 04:14:06;;;;;;;;;;;;;;;;;;2107592;28;19928;-49
2022/08/13 04:15:27;;;;;;;;;;;;;;;;;;2107137;28;19934;-50
2022/08/13 04:16:29;;;;;;;;;;;;;;;;;;2107113;28;20014;-48
2022/08/13 04:17:33;;;;;;;;;;;;;;;;;;2107088;28;20414;-48
2022/08/13 04:18:35;;;;;;;;;;;;;;;;;;2107261;28;20293;-47
2022/08/13 04:19:36;;;;;;;;;;;;;;;;;;2107262;28;19924;-47
2022/08/13 04:20:37;;;;;;;;;;;;;;;;;;2107288;28;19971;-47
2022/08/13 04:21:38;;;;;;;;;;;;;;;;;;2107309;28;19924;-51
2022/08/13 04:22:41;;;;;;;;;;;;;;;;;;2107115;28;19924;-47
2022/08/13 04:23:43;;;;;;;;;;;;;;;;;;2107708;28;20476;-48
2022/08/13 04:24:44;;;;;;;;;;;;;;;;;;2107059;28;19964;-48
2022/08/13 04:25:46;;;;;;;;;;;;;;;;;;2107263;28;19960;-46
2022/08/13 04:26:47;;;;;;;;;;;;;;;;;;2107142;28;20012;-47
2022/08/13 04:27:49;;;;;;;;;;;;;;;;;;2107198;28;20437;-46
2022/08/13 04:28:50;;;;;;;;;;;;;;;;;;2107290;28;20007;-46
2022/08/13 04:29:53;;;;;;;;;;;;;;;;;;2107030;28;20018;-45
2022/08/13 04:30:53;;;;;;;;;;;;;;;;;;2107090;28;20053;-46
2022/08/13 04:31:55;;;;;;;;;;;;;;;;;;2106932;28;19928;-46
2022/08/13 04:32:59;;;;;;;;;;;;;;;;;;2107055;28;20098;-46
2022/08/13 04:34:20;;;;;;;;;;;;;;;;;;2107049;28;19924;-46
2022/08/13 04:35:34;;;;;;;;;;;;;;;;;;2107174;28;19924;-45
2022/08/13 04:36:41;;;;;;;;;;;;;;;;;;2107392;28;19973;-46
2022/08/13 04:37:42;;;;;;;;;;;;;;;;;;2107195;28;19978;-45
2022/08/13 04:38:46;;;;;;;;;;;;;;;;;;2107113;28;20289;-45
2022/08/13 04:39:47;;;;;;;;;;;;;;;;;;2107071;28;19928;-45
2022/08/13 04:41:06;;;;;;;;;;;;;;;;;;2107602;28;19931;-45
2022/08/13 04:42:07;;;;;;;;;;;;;;;;;;2107275;28;19928;-46
2022/08/13 04:43:22;;;;;;;;;;;;;;;;;;2107057;28;20290;-44
2022/08/13 04:44:24;;;;;;;;;;;;;;;;;;2107978;28;19985;-47
2022/08/13 04:45:25;;;;;;;;;;;;;;;;;;2107302;28;20342;-49
2022/08/13 04:46:26;;;;;;;;;;;;;;;;;;2107046;28;19931;-45
2022/08/13 04:47:27;;;;;;;;;;;;;;;;;;2107097;28;20024;-43
2022/08/13 04:48:28;;;;;;;;;;;;;;;;;;2106979;28;20445;-46
2022/08/13 04:49:29;;;;;;;;;;;;;;;;;;2106888;28;19953;-45
2022/08/13 04:50:31;;;;;;;;;;;;;;;;;;2114464;28;19924;-46
2022/08/13 04:51:33;;;;;;;;;;;;;;;;;;2115417;28;19963;-43
2022/08/13 04:52:39;;;;;;;;;;;;;;;;;;2115516;28;19923;-44
2022/08/13 04:53:40;;;;;;;;;;;;;;;;;;2115303;28;19972;-47
2022/08/13 04:54:51;;;;;;;;;;;;;;;;;;2115714;28;19977;-43
2022/08/13 04:55:52;;;;;;;;;;;;;;;;;;2115099;28;19924;-45
2022/08/13 04:57:09;;;;;;;;;;;;;;;;;;2115378;28;19924;-45
2022/08/13 04:58:10;;;;;;;;;;;;;;;;;;2115257;28;20412;-46
2022/08/13 04:59:10;;;;;;;;;;;;;;;;;;2115350;28;19963;-46
2022/08/13 05:00:16;;;;;;;;;;;;;;;;;;2115225;28;19969;-46
2022/08/13 05:01:17;;;;;;;;;;;;;;;;;;2115407;28;19928;-46
2022/08/13 05:02:38;;;;;;;;;;;;;;;;;;2115509;28;19935;-46
2022/08/13 05:03:39;;;;;;;;;;;;;;;;;;2115435;28;19977;-44
2022/08/13 05:04:43;;;;;;;;;;;;;;;;;;2115956;28;19923;-46
2022/08/13 05:05:51;;;;;;;;;;;;;;;;;;2115221;28;20288;-45
2022/08/13 05:06:52;;;;;;;;;;;;;;;;;;2115171;28;20342;-45
2022/08/13 05:07:53;;;;;;;;;;;;;;;;;;2115477;28;19924;-46
2022/08/13 05:08:55;;;;;;;;;;;;;;;;;;2115562;28;19931;-48
2022/08/13 05:09:56;;;;;;;;;;;;;;;;;;2115388;28;19931;-44
2022/08/13 05:10:57;;;;;;;;;;;;;;;;;;2115287;28;19971;-44
2022/08/13 05:11:58;;;;;;;;;;;;;;;;;;2106906;28;19924;-46
2022/08/13 05:13:03;;;;;;;;;;;;;;;;;;2107080;28;19931;-44
2022/08/13 05:14:05;;;;;;;;;;;;;;;;;;2106834;28;19924;-44
2022/08/13 05:15:13;;;;;;;;;;;;;;;;;;2106738;28;19924;-44
2022/08/13 05:16:34;;;;;;;;;;;;;;;;;;2107215;28;19924;-46
2022/08/13 05:17:35;;;;;;;;;;;;;;;;;;2107308;28;19931;-47
2022/08/13 05:18:36;;;;;;;;;;;;;;;;;;2107401;28;20377;-47
2022/08/13 05:19:37;;;;;;;;;;;;;;;;;;2106948;28;19924;-47
2022/08/13 05:20:39;;;;;;;;;;;;;;;;;;2106696;28;20811;-47
2022/08/13 05:21:41;;;;;;;;;;;;;;;;;;2106791;28;19978;-46
2022/08/13 05:22:59;;;;;;;;;;;;;;;;;;2107015;28;19924;-45
2022/08/13 05:24:21;;;;;;;;;;;;;;;;;;2106728;28;19930;-47
2022/08/13 05:25:42;;;;;;;;;;;;;;;;;;2106980;28;19924;-47
2022/08/13 05:27:03;;;;;;;;;;;;;;;;;;2106810;28;19928;-48
2022/08/13 05:28:10;;;;;;;;;;;;;;;;;;2106721;28;19971;-47
2022/08/13 05:29:11;;;;;;;;;;;;;;;;;;2106798;28;20011;-47
2022/08/13 05:30:12;;;;;;;;;;;;;;;;;;2107537;28;20292;-45
2022/08/13 05:31:33;;;;;;;;;;;;;;;;;;2106768;28;19924;-46
2022/08/13 05:32:34;;;;;;;;;;;;;;;;;;2106509;28;19924;-46
2022/08/13 05:33:42;;;;;;;;;;;;;;;;;;2106769;28;19970;-44
2022/08/13 05:34:44;;;;;;;;;;;;;;;;;;2106796;28;20404;-46
2022/08/13 05:35:45;;;;;;;;;;;;;;;;;;2106640;28;19970;-47
2022/08/13 05:37:06;;;;;;;;;;;;;;;;;;2106761;28;19925;-46
2022/08/13 05:38:27;;;;;;;;;;;;;;;;;;2106956;28;19928;-45
2022/08/13 05:39:32;;;;;;;;;;;;;;;;;;2106904;28;19924;-45
2022/08/13 05:40:35;;;;;;;;;;;;;;;;;;2106824;28;19924;-45
2022/08/13 05:41:38;;;;;;;;;;;;;;;;;;2106601;28;19931;-44
2022/08/13 05:42:42;;;;;;;;;;;;;;;;;;2106569;28;19924;-44
2022/08/13 05:43:45;;;;;;;;;;;;;;;;;;2106515;28;19985;-45
2022/08/13 05:44:47;;;;;;;;;;;;;;;;;;2106675;28;20014;-46
2022/08/13 05:45:49;;;;;;;;;;;;;;;;;;2106509;28;19924;-45
2022/08/13 05:46:53;;;;;;;;;;;;;;;;;;2106677;28;20361;-46
2022/08/13 05:47:54;;;;;;;;;;;;;;;;;;2112058;28;19970;-44
2022/08/13 05:48:57;;;;;;;;;;;;;;;;;;2115547;28;19973;-45
2022/08/13 05:49:59;;;;;;;;;;;;;;;;;;2114892;28;19923;-45
2022/08/13 05:51:00;;;;;;;;;;;;;;;;;;2115218;28;19923;-45
2022/08/13 05:52:02;;;;;;;;;;;;;;;;;;2115022;28;20498;-45
2022/08/13 05:53:24;;;;;;;;;;;;;;;;;;2114923;28;20304;-44
2022/08/13 05:54:25;;;;;;;;;;;;;;;;;;2115024;28;20419;-45
2022/08/13 05:55:47;;;;;;;;;;;;;;;;;;2115071;28;19993;-45
2022/08/13 05:57:07;;;;;;;;;;;;;;;;;;2114937;28;20377;-45
2022/08/13 05:58:08;;;;;;;;;;;;;;;;;;2115363;28;19967;-46
2022/08/13 06:03:25;;;;;;;;;;;;;;;;;;2115237;28;19930;-45
2022/08/13 06:04:46;;;;;;;;;;;;;;;;;;2115175;28;19924;-47
2022/08/13 06:05:47;;;;;;;;;;;;;;;;;;2115141;28;19924;-46
2022/08/13 06:06:50;;;;;;;;;;;;;;;;;;2114899;28;20014;-45
2022/08/13 06:07:52;;;;;;;;;;;;;;;;;;2113905;28;19924;-45
2022/08/13 06:08:56;;;;;;;;;;;;;;;;;;2115021;28;19928;-46
2022/08/13 06:09:57;;;;;;;;;;;;;;;;;;2115078;28;19923;-46
2022/08/13 06:10:59;;;;;;;;;;;;;;;;;;2115336;28;20018;-47
2022/08/13 06:12:00;;;;;;;;;;;;;;;;;;2106530;28;20301;-46
2022/08/13 06:13:09;;;;;;;;;;;;;;;;;;2106599;28;20010;-46
2022/08/13 06:14:15;;;;;;;;;;;;;;;;;;2106935;28;19963;-48
2022/08/13 06:15:17;;;;;;;;;;;;;;;;;;2106238;28;20364;-45
2022/08/13 06:16:19;;;;;;;;;;;;;;;;;;2106390;28;19934;-44
2022/08/13 06:17:35;;;;;;;;;;;;;;;;;;2106379;28;19931;-47
2022/08/13 06:18:36;;;;;;;;;;;;;;;;;;2106500;28;20408;-46
2022/08/13 06:19:38;;;;;;;;;;;;;;;;;;2106720;28;20019;-44
2022/08/13 06:20:41;;;;;;;;;;;;;;;;;;2106405;28;20489;-46
2022/08/13 06:21:42;;;;;;;;;;;;;;;;;;2106250;28;20007;-45
2022/08/13 06:23:00;;;;;;;;;;;;;;;;;;2106703;28;19924;-48
2022/08/13 06:24:05;;;;;;;;;;;;;;;;;;2106554;28;19924;-46
2022/08/13 06:25:06;;;;;;;;;;;;;;;;;;2106272;28;19924;-47
2022/08/13 06:26:07;;;;;;;;;;;;;;;;;;2106277;28;19997;-45
2022/08/13 06:27:11;;;;;;;;;;;;;;;;;;2106365;28;20282;-47
2022/08/13 06:28:16;;;;;;;;;;;;;;;;;;2106334;28;19924;-45
2022/08/13 06:29:17;;;;;;;;;;;;;;;;;;2106295;28;20421;-46
2022/08/13 06:30:18;;;;;;;;;;;;;;;;;;2106223;28;19928;-45
2022/08/13 06:31:20;;;;;;;;;;;;;;;;;;2106781;28;20015;-47
2022/08/13 06:32:28;;;;;;;;;;;;;;;;;;2106722;28;19931;-45
2022/08/13 06:33:37;;;;;;;;;;;;;;;;;;2106340;28;19932;-44
2022/08/13 06:34:58;;;;;;;;;;;;;;;;;;2106449;28;19938;-44
2022/08/13 06:35:59;;;;;;;;;;;;;;;;;;2106526;28;20002;-45
2022/08/13 06:37:00;;;;;;;;;;;;;;;;;;2106192;28;19924;-45
2022/08/13 06:38:01;;;;;;;;;;;;;;;;;;2106363;28;19924;-46
2022/08/13 06:39:02;;;;;;;;;;;;;;;;;;2106331;28;20281;-46
2022/08/13 06:40:03;;;;;;;;;;;;;;;;;;2106670;28;19930;-44
2022/08/13 06:41:04;;;;;;;;;;;;;;;;;;2106754;28;19932;-45
2022/08/13 06:42:06;;;;;;;;;;;;;;;;;;2106100;28;19930;-44
2022/08/13 06:43:07;;;;;;;;;;;;;;;;;;2115065;28;19935;-44
2022/08/13 06:44:08;;;;;;;;;;;;;;;;;;2115206;28;19924;-46
2022/08/13 06:45:10;;;;;;;;;;;;;;;;;;2114615;28;20365;-44
2022/08/13 06:46:11;;;;;;;;;;;;;;;;;;2114542;28;20858;-44
2022/08/13 06:47:12;;;;;;;;;;;;;;;;;;2114645;28;19930;-44
2022/08/13 06:48:14;;;;;;;;;;;;;;;;;;2114568;28;19924;-44
2022/08/13 06:49:16;;;;;;;;;;;;;;;;;;2114865;28;19924;-46
2022/08/13 06:50:17;;;;;;;;;;;;;;;;;;2114845;28;19927;-44
2022/08/13 06:51:18;;;;;;;;;;;;;;;;;;2114977;28;19984;-45
2022/08/13 06:52:19;;;;;;;;;;;;;;;;;;2115476;28;19924;-44
2022/08/13 06:53:20;;;;;;;;;;;;;;;;;;2114731;28;19930;-46
2022/08/13 06:54:42;;;;;;;;;;;;;;;;;;2114760;28;20391;-46
2022/08/13 06:55:44;;;;;;;;;;;;;;;;;;2114487;28;20053;-46
2022/08/13 06:57:05;;;;;;;;;;;;;;;;;;2114790;28;19923;-46
2022/08/13 06:58:13;;;;;;;;;;;;;;;;;;2114533;28;19935;-45
2022/08/13 06:59:17;;;;;;;;;;;;;;;;;;2115183;28;19924;-46
2022/08/13 07:00:25;;;;;;;;;;;;;;;;;;2115224;28;19931;-44
2022/08/13 07:01:28;;;;;;;;;;;;;;;;;;2115197;28;19928;-45
2022/08/13 07:02:36;;;;;;;;;;;;;;;;;;2114735;28;20364;-45
2022/08/13 07:03:39;;;;;;;;;;;;;;;;;;2114583;28;19927;-44
2022/08/13 07:04:48;;;;;;;;;;;;;;;;;;2114645;28;20517;-44
2022/08/13 07:05:50;;;;;;;;;;;;;;;;;;2115117;28;20022;-45
2022/08/13 07:06:59;;;;;;;;;;;;;;;;;;2114810;28;20291;-44
2022/08/13 07:08:02;;;;;;;;;;;;;;;;;;2115313;28;19931;-44
2022/08/13 07:09:05;;;;;;;;;;;;;;;;;;2114909;28;20420;-44
2022/08/13 07:10:06;;;;;;;;;;;;;;;;;;2115318;28;19924;-44
2022/08/13 07:11:22;;;;;;;;;;;;;;;;;;2113607;28;19967;-44
2022/08/13 07:12:25;;;;;;;;;;;;;;;;;;2106423;28;20437;-45
2022/08/13 07:13:26;;;;;;;;;;;;;;;;;;2106245;28;20007;-44
2022/08/13 07:14:42;;;;;;;;;;;;;;;;;;2106897;28;19931;-46
2022/08/13 07:15:44;;;;;;;;;;;;;;;;;;2106491;28;19979;-46
2022/08/13 07:16:45;;;;;;;;;;;;;;;;;;2106349;28;19930;-45
2022/08/13 07:17:47;;;;;;;;;;;;;;;;;;2106079;28;20011;-46
2022/08/13 07:18:49;;;;;;;;;;;;;;;;;;2106380;28;19980;-45
2022/08/13 07:19:51;;;;;;;;;;;;;;;;;;2107375;28;19928;-47
2022/08/13 07:21:07;;;;;;;;;;;;;;;;;;2107811;28;19924;-44
2022/08/13 07:22:08;;;;;;;;;;;;;;;;;;2108476;28;20392;-49
2022/08/13 07:23:11;;;;;;;;;;;;;;;;;;2108776;28;20013;-44
2022/08/13 07:24:32;;;;;;;;;;;;;;;;;;2108591;28;19931;-45
2022/08/13 07:25:41;;;;;;;;;;;;;;;;;;2108101;28;20001;-46
2022/08/13 07:26:59;;;;;;;;;;;;;;;;;;2107432;28;19967;-46
2022/08/13 07:28:00;;;;;;;;;;;;;;;;;;2108291;28;20405;-46
2022/08/13 07:29:01;;;;;;;;;;;;;;;;;;2107815;28;19928;-45
2022/08/13 07:30:02;;;;;;;;;;;;;;;;;;2107853;28;19924;-46
2022/08/13 07:31:05;;;;;;;;;;;;;;;;;;2108334;28;19924;-46
2022/08/13 07:32:11;;;;;;;;;;;;;;;;;;2107490;28;20439;-46
2022/08/13 07:33:13;;;;;;;;;;;;;;;;;;2107763;28;20034;-44
2022/08/13 07:34:14;;;;;;;;;;;;;;;;;;2107590;28;20057;-46
2022/08/13 07:35:16;;;;;;;;;;;;;;;;;;2108039;28;19927;-44